Time;durP1;ratioP1;P1;durP2;ratioP2;P2;SDS_P1;SDS_P2;PMS_P1;PMS_P2;Temp;Humidity;BMP_temperature;BMP_pressure;BME280_temperature;BME280_humidity;BME280_pressure;Samples;Min_cycle;Max_cycle;Signal;HPM_P1;HPM_P2
2024/04/06 00:01:10;;;;;;;0.00;0.00;;;;;;;;;;7400226;19;20157;-52
2024/04/06 00:03:36;;;;;;;0.00;0.00;;;;;;;;;;7399227;19;20578;-53
2024/04/06 00:06:02;;;;;;;0.00;0.00;;;;;;;;;;7399802;19;20146;-52
2024/04/06 00:08:28;;;;;;;0.00;0.00;;;;;;;;;;7397102;19;20142;-52
2024/04/06 00:10:54;;;;;;;0.00;0.00;;;;;;;;;;7397447;19;20142;-54
2024/04/06 00:13:20;;;;;;;0.00;0.00;;;;;;;;;;7398523;19;20134;-53
2024/04/06 00:15:47;;;;;;;0.00;0.00;;;;;;;;;;7399189;19;20499;-52
2024/04/06 00:18:13;;;;;;;0.00;0.00;;;;;;;;;;7397554;19;20138;-53
2024/04/06 00:20:39;;;;;;;0.10;0.10;;;;;;;;;;7398850;19;20141;-53
2024/04/06 00:23:05;;;;;;;0.03;0.03;;;;;;;;;;7398892;19;20166;-53
2024/04/06 00:25:31;;;;;;;0.00;0.00;;;;;;;;;;7398697;19;20147;-53
2024/04/06 00:27:57;;;;;;;0.00;0.00;;;;;;;;;;7397165;19;20194;-53
2024/04/06 00:30:23;;;;;;;0.00;0.00;;;;;;;;;;7398547;19;20130;-53
2024/04/06 00:32:49;;;;;;;0.00;0.00;;;;;;;;;;7398443;19;20143;-53
2024/04/06 00:35:16;;;;;;;0.00;0.00;;;;;;;;;;7398647;19;20139;-51
2024/04/06 00:37:42;;;;;;;0.00;0.00;;;;;;;;;;7398328;19;20169;-53
2024/04/06 00:40:08;;;;;;;0.00;0.00;;;;;;;;;;7396704;19;20157;-53
2024/04/06 00:42:34;;;;;;;0.10;0.10;;;;;;;;;;7396925;19;20593;-53
2024/04/06 00:45:00;;;;;;;0.00;0.00;;;;;;;;;;7398794;19;20142;-53
2024/04/06 00:47:27;;;;;;;0.00;0.00;;;;;;;;;;7397556;19;20178;-52
2024/04/06 00:49:53;;;;;;;0.00;0.00;;;;;;;;;;7397169;19;20169;-53
2024/04/06 00:52:19;;;;;;;0.00;0.00;;;;;;;;;;7397697;19;20135;-53
2024/04/06 00:54:45;;;;;;;0.00;0.00;;;;;;;;;;7396854;19;20142;-53
2024/04/06 00:57:11;;;;;;;0.00;0.00;;;;;;;;;;7396203;19;20145;-53
2024/04/06 00:59:38;;;;;;;0.00;0.00;;;;;;;;;;7397938;19;20201;-53
2024/04/06 01:02:04;;;;;;;0.00;0.00;;;;;;;;;;7397706;19;20141;-53
2024/04/06 01:04:31;;;;;;;0.00;0.00;;;;;;;;;;7397409;19;20137;-54
2024/04/06 01:06:57;;;;;;;0.00;0.00;;;;;;;;;;7396682;19;20666;-52
2024/04/06 01:09:23;;;;;;;0.00;0.00;;;;;;;;;;7397702;19;20138;-52
2024/04/06 01:11:50;;;;;;;0.00;0.00;;;;;;;;;;7396370;19;20238;-53
2024/04/06 01:14:16;;;;;;;0.00;0.00;;;;;;;;;;7397650;19;20138;-52
2024/04/06 01:16:43;;;;;;;0.00;0.00;;;;;;;;;;7397773;19;20237;-53
2024/04/06 01:19:09;;;;;;;0.00;0.00;;;;;;;;;;7397028;19;20482;-52
2024/04/06 01:21:35;;;;;;;0.00;0.00;;;;;;;;;;7396822;19;20138;-53
2024/04/06 01:24:05;;;;;;;0.00;0.00;;;;;;;;;;7396323;19;20152;-53
2024/04/06 01:26:32;;;;;;;0.00;0.00;;;;;;;;;;7396610;19;20134;-53
2024/04/06 01:28:58;;;;;;;0.00;0.00;;;;;;;;;;7395880;19;20141;-53
2024/04/06 01:31:24;;;;;;;0.00;0.00;;;;;;;;;;7395205;19;20229;-52
2024/04/06 01:33:50;;;;;;;0.00;0.00;;;;;;;;;;7396571;19;20134;-53
2024/04/06 01:36:16;;;;;;;0.00;0.00;;;;;;;;;;7396711;19;20161;-52
2024/04/06 01:38:42;;;;;;;0.00;0.00;;;;;;;;;;7395766;19;20205;-52
2024/04/06 01:41:08;;;;;;;0.00;0.00;;;;;;;;;;7396500;19;20240;-53
2024/04/06 01:43:34;;;;;;;0.00;0.00;;;;;;;;;;7396211;19;20142;-53
2024/04/06 01:46:00;;;;;;;0.00;0.00;;;;;;;;;;7396383;19;20142;-53
2024/04/06 01:48:26;;;;;;;0.00;0.00;;;;;;;;;;7394897;19;20130;-53
2024/04/06 01:50:52;;;;;;;0.00;0.00;;;;;;;;;;7394665;19;20161;-54
2024/04/06 01:53:18;;;;;;;0.00;0.00;;;;;;;;;;7396146;19;20601;-53
2024/04/06 01:55:44;;;;;;;0.00;0.00;;;;;;;;;;7396409;19;20171;-53
2024/04/06 01:58:10;;;;;;;0.00;0.00;;;;;;;;;;7395987;19;20141;-52
2024/04/06 02:00:36;;;;;;;0.00;0.00;;;;;;;;;;7395795;19;20138;-52
2024/04/06 02:03:04;;;;;;;0.00;0.00;;;;;;;;;;7395512;19;20220;-54
2024/04/06 02:05:30;;;;;;;0.00;0.00;;;;;;;;;;7395393;19;20600;-52
2024/04/06 02:07:56;;;;;;;0.00;0.00;;;;;;;;;;7394242;19;20593;-53
2024/04/06 02:10:22;;;;;;;0.00;0.00;;;;;;;;;;7395712;19;20158;-54
2024/04/06 02:12:50;;;;;;;0.00;0.00;;;;;;;;;;7395809;19;20141;-53
2024/04/06 02:15:16;;;;;;;0.00;0.00;;;;;;;;;;7395532;19;20208;-53
2024/04/06 02:17:42;;;;;;;0.03;0.03;;;;;;;;;;7395244;19;20145;-53
2024/04/06 02:20:09;;;;;;;0.00;0.00;;;;;;;;;;7395291;19;20129;-54
2024/04/06 02:22:35;;;;;;;0.00;0.00;;;;;;;;;;7395377;19;20134;-53
2024/04/06 02:25:03;;;;;;;0.00;0.00;;;;;;;;;;7395631;19;20138;-53
2024/04/06 02:27:29;;;;;;;0.00;0.00;;;;;;;;;;7393918;19;20760;-53
2024/04/06 02:29:55;;;;;;;0.10;0.10;;;;;;;;;;7395050;19;20142;-53
2024/04/06 02:32:21;;;;;;;0.00;0.00;;;;;;;;;;7395914;19;20145;-52
2024/04/06 02:34:47;;;;;;;0.10;0.10;;;;;;;;;;7397177;19;20144;-52
2024/04/06 02:37:13;;;;;;;0.10;0.10;;;;;;;;;;7402666;19;20143;-54
2024/04/06 02:39:39;;;;;;;0.00;0.00;;;;;;;;;;7402758;19;20138;-52
2024/04/06 02:42:05;;;;;;;0.00;0.00;;;;;;;;;;7402212;19;20142;-52
2024/04/06 02:44:32;;;;;;;0.00;0.00;;;;;;;;;;7402315;19;20149;-52
2024/04/06 02:46:58;;;;;;;0.00;0.00;;;;;;;;;;7400423;19;20552;-53
2024/04/06 02:49:24;;;;;;;0.00;0.00;;;;;;;;;;7401005;19;20634;-52
2024/04/06 02:51:50;;;;;;;0.00;0.00;;;;;;;;;;7402128;19;20155;-52
2024/04/06 02:54:16;;;;;;;0.00;0.00;;;;;;;;;;7402325;19;20155;-52
2024/04/06 02:56:42;;;;;;;0.00;0.00;;;;;;;;;;7402217;19;20134;-53
2024/04/06 02:59:08;;;;;;;0.10;0.10;;;;;;;;;;7401806;19;20130;-52
2024/04/06 03:01:34;;;;;;;0.00;0.00;;;;;;;;;;7401796;19;20138;-52
2024/04/06 03:04:00;;;;;;;0.00;0.00;;;;;;;;;;7402018;19;20145;-52
2024/04/06 03:06:26;;;;;;;0.00;0.00;;;;;;;;;;7401067;19;20148;-52
2024/04/06 03:08:52;;;;;;;0.00;0.00;;;;;;;;;;7401596;19;20621;-52
2024/04/06 03:11:19;;;;;;;0.00;0.00;;;;;;;;;;7401346;19;20465;-52
2024/04/06 03:13:45;;;;;;;0.00;0.00;;;;;;;;;;7401357;19;20601;-52
2024/04/06 03:16:11;;;;;;;0.00;0.00;;;;;;;;;;7401403;19;20169;-53
2024/04/06 03:18:37;;;;;;;0.00;0.00;;;;;;;;;;7401337;19;20130;-52
2024/04/06 03:21:04;;;;;;;0.00;0.00;;;;;;;;;;7401204;19;20167;-53
2024/04/06 03:23:30;;;;;;;0.00;0.00;;;;;;;;;;7401049;19;20616;-53
2024/04/06 03:25:57;;;;;;;0.00;0.00;;;;;;;;;;7401068;19;20134;-52
2024/04/06 03:28:23;;;;;;;0.00;0.00;;;;;;;;;;7398733;19;20130;-53
2024/04/06 03:30:49;;;;;;;0.00;0.00;;;;;;;;;;7401036;19;20151;-52
2024/04/06 03:33:15;;;;;;;0.03;0.03;;;;;;;;;;7401154;19;20142;-52
2024/04/06 03:35:41;;;;;;;0.03;0.03;;;;;;;;;;7400479;19;20482;-52
2024/04/06 03:38:07;;;;;;;0.00;0.00;;;;;;;;;;7400751;19;20138;-52
2024/04/06 03:40:33;;;;;;;0.00;0.00;;;;;;;;;;7400399;19;20136;-51
2024/04/06 03:43:00;;;;;;;0.00;0.00;;;;;;;;;;7400770;19;20135;-52
2024/04/06 03:45:26;;;;;;;0.00;0.00;;;;;;;;;;7400148;19;20134;-52
2024/04/06 03:47:53;;;;;;;0.00;0.00;;;;;;;;;;7398492;19;20158;-52
2024/04/06 03:50:20;;;;;;;0.00;0.00;;;;;;;;;;7398167;19;20150;-52
2024/04/06 03:52:46;;;;;;;0.00;0.00;;;;;;;;;;7400186;19;20138;-52
2024/04/06 03:55:12;;;;;;;0.10;0.10;;;;;;;;;;7398884;19;20163;-52
2024/04/06 03:57:38;;;;;;;0.00;0.00;;;;;;;;;;7398824;19;20141;-52
2024/04/06 04:00:08;;;;;;;0.00;0.00;;;;;;;;;;7399824;19;20222;-51
2024/04/06 04:02:34;;;;;;;0.00;0.00;;;;;;;;;;7400261;19;20138;-52
2024/04/06 04:05:00;;;;;;;0.00;0.00;;;;;;;;;;7400111;19;20146;-52
2024/04/06 04:07:26;;;;;;;0.00;0.00;;;;;;;;;;7398430;19;20592;-52
2024/04/06 04:09:53;;;;;;;0.00;0.00;;;;;;;;;;7399538;19;20609;-52
2024/04/06 04:12:19;;;;;;;0.00;0.00;;;;;;;;;;7399408;19;20122;-52
2024/04/06 04:14:45;;;;;;;0.00;0.00;;;;;;;;;;7399393;19;20134;-52
2024/04/06 04:17:11;;;;;;;0.00;0.00;;;;;;;;;;7399920;19;20201;-53
2024/04/06 04:19:37;;;;;;;0.00;0.00;;;;;;;;;;7399227;19;20629;-53
2024/04/06 04:22:03;;;;;;;0.00;0.00;;;;;;;;;;7397430;19;20636;-53
2024/04/06 04:24:29;;;;;;;0.00;0.00;;;;;;;;;;7399220;19;20525;-53
2024/04/06 04:26:55;;;;;;;0.00;0.00;;;;;;;;;;7398765;19;20167;-52
2024/04/06 04:29:22;;;;;;;0.00;0.00;;;;;;;;;;7399363;19;20500;-52
2024/04/06 04:31:48;;;;;;;0.03;0.03;;;;;;;;;;7399135;19;20138;-52
2024/04/06 04:34:14;;;;;;;0.00;0.00;;;;;;;;;;7398669;19;20154;-53
2024/04/06 04:36:40;;;;;;;0.10;0.10;;;;;;;;;;7398898;19;20131;-53
2024/04/06 04:39:06;;;;;;;0.00;0.00;;;;;;;;;;7398838;19;20592;-53
2024/04/06 04:41:32;;;;;;;0.00;0.00;;;;;;;;;;7398915;19;20186;-53
2024/04/06 04:43:58;;;;;;;0.10;0.10;;;;;;;;;;7398555;19;20133;-52
2024/04/06 04:46:24;;;;;;;0.00;0.00;;;;;;;;;;7397951;19;20142;-53
2024/04/06 04:48:53;;;;;;;0.10;0.10;;;;;;;;;;7398041;19;20135;-53
2024/04/06 04:51:20;;;;;;;0.00;0.00;;;;;;;;;;7398415;19;20142;-53
2024/04/06 04:53:46;;;;;;;0.00;0.00;;;;;;;;;;7398039;19;20620;-52
2024/04/06 04:56:12;;;;;;;0.00;0.00;;;;;;;;;;7395925;19;20138;-53
2024/04/06 04:58:38;;;;;;;0.00;0.00;;;;;;;;;;7396870;19;20134;-52
2024/04/06 05:01:05;;;;;;;0.00;0.00;;;;;;;;;;7398226;19;20148;-52
2024/04/06 05:03:31;;;;;;;0.10;0.10;;;;;;;;;;7397617;19;20141;-53
2024/04/06 05:05:57;;;;;;;0.00;0.00;;;;;;;;;;7397597;19;20130;-53
2024/04/06 05:08:23;;;;;;;0.00;0.00;;;;;;;;;;7395485;19;20134;-52
2024/04/06 05:10:50;;;;;;;0.10;0.10;;;;;;;;;;7396998;19;20519;-53
2024/04/06 05:13:16;;;;;;;0.00;0.00;;;;;;;;;;7397717;19;20142;-52
2024/04/06 05:15:46;;;;;;;0.00;0.00;;;;;;;;;;7395294;19;20193;-52
2024/04/06 05:18:12;;;;;;;0.10;0.10;;;;;;;;;;7396570;19;20209;-52
2024/04/06 05:20:38;;;;;;;0.10;0.10;;;;;;;;;;7397331;19;20154;-53
2024/04/06 05:23:04;;;;;;;0.10;0.10;;;;;;;;;;7397167;19;20593;-53
2024/04/06 05:25:30;;;;;;;0.00;0.00;;;;;;;;;;7397196;19;20150;-53
2024/04/06 05:27:56;;;;;;;0.00;0.00;;;;;;;;;;7395559;19;20608;-53
2024/04/06 05:30:23;;;;;;;0.00;0.00;;;;;;;;;;7396598;19;20620;-53
2024/04/06 05:32:49;;;;;;;0.00;0.00;;;;;;;;;;7397560;19;20146;-53
2024/04/06 05:35:15;;;;;;;0.00;0.00;;;;;;;;;;7396001;19;20191;-52
2024/04/06 05:37:41;;;;;;;0.00;0.00;;;;;;;;;;7396447;19;20156;-51
2024/04/06 05:40:07;;;;;;;0.10;0.10;;;;;;;;;;7395203;19;20473;-52
2024/04/06 05:42:33;;;;;;;0.00;0.00;;;;;;;;;;7396487;19;20158;-52
2024/04/06 05:44:59;;;;;;;0.00;0.00;;;;;;;;;;7396942;19;20157;-52
2024/04/06 05:47:27;;;;;;;0.00;0.00;;;;;;;;;;7395152;19;20246;-53
2024/04/06 05:49:53;;;;;;;0.03;0.03;;;;;;;;;;7395149;19;20180;-52
2024/04/06 05:52:19;;;;;;;0.00;0.00;;;;;;;;;;7396084;19;20142;-52
2024/04/06 05:54:45;;;;;;;0.00;0.00;;;;;;;;;;7395862;19;20150;-52
2024/04/06 05:57:11;;;;;;;0.00;0.00;;;;;;;;;;7395844;19;20145;-52
2024/04/06 05:59:37;;;;;;;0.00;0.00;;;;;;;;;;7396575;19;20149;-52
2024/04/06 06:02:03;;;;;;;0.00;0.00;;;;;;;;;;7395450;19;20138;-53
2024/04/06 06:04:29;;;;;;;0.00;0.00;;;;;;;;;;7395664;19;20147;-52
2024/04/06 06:06:55;;;;;;;0.00;0.00;;;;;;;;;;7395163;19;20205;-53
2024/04/06 06:09:22;;;;;;;0.00;0.00;;;;;;;;;;7393334;19;20146;-52
2024/04/06 06:11:49;;;;;;;0.00;0.00;;;;;;;;;;7395639;19;20130;-52
2024/04/06 06:14:15;;;;;;;0.00;0.00;;;;;;;;;;7395600;19;20138;-54
2024/04/06 06:16:41;;;;;;;0.00;0.00;;;;;;;;;;7395698;19;20161;-52
2024/04/06 06:19:07;;;;;;;0.00;0.00;;;;;;;;;;7395720;19;20165;-52
2024/04/06 06:21:33;;;;;;;0.00;0.00;;;;;;;;;;7394575;19;20147;-53
2024/04/06 06:23:59;;;;;;;0.00;0.00;;;;;;;;;;7394661;19;20141;-53
2024/04/06 06:26:25;;;;;;;0.00;0.00;;;;;;;;;;7394546;19;20134;-52
2024/04/06 06:28:51;;;;;;;0.00;0.00;;;;;;;;;;7395634;19;20136;-52
2024/04/06 06:31:17;;;;;;;0.00;0.00;;;;;;;;;;7394859;19;20470;-52
2024/04/06 06:33:43;;;;;;;0.00;0.00;;;;;;;;;;7395345;19;20506;-52
2024/04/06 06:36:13;;;;;;;0.00;0.00;;;;;;;;;;7394772;19;20161;-52
2024/04/06 06:38:40;;;;;;;0.00;0.00;;;;;;;;;;7393468;19;20162;-52
2024/04/06 06:41:06;;;;;;;0.00;0.00;;;;;;;;;;7395024;19;20197;-52
2024/04/06 06:43:32;;;;;;;0.00;0.00;;;;;;;;;;7394560;19;20142;-52
2024/04/06 06:45:58;;;;;;;0.00;0.00;;;;;;;;;;7393700;19;20193;-53
2024/04/06 06:48:24;;;;;;;0.00;0.00;;;;;;;;;;7392611;19;20173;-53
2024/04/06 06:50:50;;;;;;;0.00;0.00;;;;;;;;;;7392868;19;20189;-52
2024/04/06 06:53:16;;;;;;;0.00;0.00;;;;;;;;;;7394641;19;20135;-52
2024/04/06 06:55:42;;;;;;;0.00;0.00;;;;;;;;;;7394067;19;20131;-53
2024/04/06 06:58:08;;;;;;;0.00;0.00;;;;;;;;;;7394161;19;20130;-53
2024/04/06 07:00:36;;;;;;;0.00;0.00;;;;;;;;;;7394060;19;20483;-51
2024/04/06 07:03:02;;;;;;;0.00;0.00;;;;;;;;;;7394946;19;20193;-52
2024/04/06 07:05:28;;;;;;;0.00;0.00;;;;;;;;;;7393290;19;20150;-52
2024/04/06 07:07:59;;;;;;;0.00;0.00;;;;;;;;;;7392224;19;20601;-52
2024/04/06 07:10:25;;;;;;;0.00;0.00;;;;;;;;;;7393980;19;20138;-52
2024/04/06 07:12:51;;;;;;;0.00;0.00;;;;;;;;;;7394182;19;20135;-52
2024/04/06 07:15:17;;;;;;;0.00;0.00;;;;;;;;;;7393717;19;20153;-52
2024/04/06 07:17:43;;;;;;;0.00;0.00;;;;;;;;;;7393309;19;20141;-53
2024/04/06 07:20:10;;;;;;;0.00;0.00;;;;;;;;;;7393768;19;20134;-52
2024/04/06 07:22:39;;;;;;;0.00;0.00;;;;;;;;;;7400789;19;20589;-53
2024/04/06 07:25:05;;;;;;;0.00;0.00;;;;;;;;;;7400408;19;20601;-52
2024/04/06 07:27:31;;;;;;;0.00;0.00;;;;;;;;;;7399659;19;20510;-53
2024/04/06 07:29:57;;;;;;;0.00;0.00;;;;;;;;;;7400908;19;20138;-53
2024/04/06 07:32:23;;;;;;;0.00;0.00;;;;;;;;;;7398548;19;20197;-52
2024/04/06 07:34:49;;;;;;;0.00;0.00;;;;;;;;;;7400486;19;20161;-53
2024/04/06 07:37:15;;;;;;;0.00;0.00;;;;;;;;;;7400586;19;20166;-53
2024/04/06 07:39:41;;;;;;;0.00;0.00;;;;;;;;;;7400211;19;20191;-52
2024/04/06 07:42:07;;;;;;;0.00;0.00;;;;;;;;;;7400370;19;20153;-52
2024/04/06 07:44:33;;;;;;;0.00;0.00;;;;;;;;;;7398576;19;20155;-51
2024/04/06 07:46:59;;;;;;;0.00;0.00;;;;;;;;;;7399647;19;20162;-52
2024/04/06 07:49:25;;;;;;;0.00;0.00;;;;;;;;;;7396890;19;20170;-51
2024/04/06 07:51:51;;;;;;;0.00;0.00;;;;;;;;;;7397464;19;20474;-53
2024/04/06 07:54:17;;;;;;;0.00;0.00;;;;;;;;;;7399901;19;20149;-51
2024/04/06 07:56:43;;;;;;;0.10;0.10;;;;;;;;;;7399264;19;20149;-52
2024/04/06 07:59:09;;;;;;;0.00;0.00;;;;;;;;;;7397711;19;20624;-52
2024/04/06 08:01:35;;;;;;;0.00;0.00;;;;;;;;;;7399067;19;20134;-51
2024/04/06 08:04:01;;;;;;;0.00;0.00;;;;;;;;;;7399374;19;20202;-52
2024/04/06 08:06:27;;;;;;;0.00;0.00;;;;;;;;;;7399409;19;20142;-51
2024/04/06 08:08:53;;;;;;;0.00;0.00;;;;;;;;;;7399279;19;20153;-51
2024/04/06 08:11:19;;;;;;;0.00;0.00;;;;;;;;;;7398637;19;20133;-50
2024/04/06 08:13:45;;;;;;;0.00;0.00;;;;;;;;;;7398732;19;20622;-51
2024/04/06 08:16:11;;;;;;;0.00;0.00;;;;;;;;;;7398141;19;20154;-52
2024/04/06 08:18:37;;;;;;;0.00;0.00;;;;;;;;;;7398814;19;20611;-53
2024/04/06 08:21:04;;;;;;;0.00;0.00;;;;;;;;;;7397892;19;20162;-51
2024/04/06 08:23:30;;;;;;;0.00;0.00;;;;;;;;;;7399025;19;20134;-52
2024/04/06 08:25:56;;;;;;;0.00;0.00;;;;;;;;;;7397826;19;20163;-52
2024/04/06 08:28:22;;;;;;;0.00;0.00;;;;;;;;;;7396322;19;20134;-52
2024/04/06 08:30:48;;;;;;;0.03;0.03;;;;;;;;;;7398228;19;20145;-52
2024/04/06 08:33:14;;;;;;;0.00;0.00;;;;;;;;;;7394581;19;20137;-51
2024/04/06 08:35:41;;;;;;;0.00;0.00;;;;;;;;;;7398024;19;20130;-52
2024/04/06 08:38:07;;;;;;;0.00;0.00;;;;;;;;;;7398091;19;20142;-51
2024/04/06 08:40:40;;;;;;;0.00;0.00;;;;;;;;;;7397764;19;20146;-52
2024/04/06 08:43:11;;;;;;;0.00;0.00;;;;;;;;;;7397863;19;20130;-51
2024/04/06 08:45:38;;;;;;;0.00;0.00;;;;;;;;;;7397421;19;20192;-51
2024/04/06 08:48:04;;;;;;;0.00;0.00;;;;;;;;;;7396054;19;20142;-51
2024/04/06 08:50:31;;;;;;;0.00;0.00;;;;;;;;;;7396318;19;20238;-52
2024/04/06 08:52:57;;;;;;;0.00;0.00;;;;;;;;;;7397835;19;20137;-52
2024/04/06 08:55:23;;;;;;;0.00;0.00;;;;;;;;;;7396121;19;20141;-51
2024/04/06 08:57:50;;;;;;;0.00;0.00;;;;;;;;;;7398135;19;20181;-52
2024/04/06 09:00:17;;;;;;;0.00;0.00;;;;;;;;;;7397559;19;20197;-52
2024/04/06 09:02:43;;;;;;;0.00;0.00;;;;;;;;;;7396731;19;20151;-51
2024/04/06 09:05:10;;;;;;;0.00;0.00;;;;;;;;;;7397041;19;20138;-52
2024/04/06 09:07:36;;;;;;;0.00;0.00;;;;;;;;;;7395764;19;20535;-51
2024/04/06 09:10:02;;;;;;;0.00;0.00;;;;;;;;;;7396948;19;20138;-52
2024/04/06 09:12:28;;;;;;;0.00;0.00;;;;;;;;;;7396746;19;20138;-51
2024/04/06 09:14:55;;;;;;;0.10;0.10;;;;;;;;;;7396475;19;20130;-51
2024/04/06 09:17:24;;;;;;;0.00;0.00;;;;;;;;;;7396667;19;20581;-52
2024/04/06 09:19:50;;;;;;;0.00;0.00;;;;;;;;;;7396615;19;20134;-51
2024/04/06 09:22:16;;;;;;;0.00;0.00;;;;;;;;;;7396429;19;20130;-51
2024/04/06 09:24:42;;;;;;;0.10;0.10;;;;;;;;;;7396038;19;20134;-51
2024/04/06 09:27:12;;;;;;;0.00;0.00;;;;;;;;;;7394994;19;20138;-52
2024/04/06 09:29:46;;;;;;;0.00;0.00;;;;;;;;;;7395839;19;20201;-52
2024/04/06 09:32:14;;;;;;;0.00;0.00;;;;;;;;;;7396163;19;20198;-51
2024/04/06 09:34:50;;;;;;;0.00;0.00;;;;;;;;;;7396291;19;20143;-52
2024/04/06 09:37:22;;;;;;;0.00;0.00;;;;;;;;;;7393661;19;20589;-51
2024/04/06 09:39:48;;;;;;;0.00;0.00;;;;;;;;;;7394964;19;20162;-50
2024/04/06 09:42:15;;;;;;;0.00;0.00;;;;;;;;;;7395424;19;20501;-51
2024/04/06 09:44:41;;;;;;;0.00;0.00;;;;;;;;;;7393851;19;20521;-51
2024/04/06 09:47:10;;;;;;;0.00;0.00;;;;;;;;;;7394948;19;20157;-52
2024/04/06 09:49:36;;;;;;;0.00;0.00;;;;;;;;;;7394932;19;20160;-51
2024/04/06 09:52:03;;;;;;;0.10;0.10;;;;;;;;;;7395480;19;20197;-51
2024/04/06 09:54:29;;;;;;;0.00;0.00;;;;;;;;;;7394943;19;20133;-51
2024/04/06 09:56:55;;;;;;;0.00;0.00;;;;;;;;;;7393237;19;20220;-51
2024/04/06 09:59:22;;;;;;;0.00;0.00;;;;;;;;;;7395090;19;20134;-52
2024/04/06 10:01:48;;;;;;;0.00;0.00;;;;;;;;;;7394709;19;20138;-51
2024/04/06 10:04:34;;;;;;;0.00;0.00;;;;;;;;;;7395919;19;20615;-50
2024/04/06 10:07:04;;;;;;;0.00;0.00;;;;;;;;;;7394657;19;20205;-51
2024/04/06 10:09:30;;;;;;;0.00;0.00;;;;;;;;;;7395689;19;20171;-52
2024/04/06 10:12:00;;;;;;;0.00;0.00;;;;;;;;;;7394320;19;20134;-51
2024/04/06 10:14:29;;;;;;;0.00;0.00;;;;;;;;;;7393360;19;20134;-51
2024/04/06 10:17:14;;;;;;;0.10;0.10;;;;;;;;;;7394675;19;20146;-52
2024/04/06 10:19:40;;;;;;;0.00;0.00;;;;;;;;;;7393255;19;20507;-51
2024/04/06 10:22:08;;;;;;;0.10;0.10;;;;;;;;;;7393702;19;20606;-51
2024/04/06 10:24:37;;;;;;;0.00;0.00;;;;;;;;;;7395007;19;20499;-50
2024/04/06 10:27:03;;;;;;;0.00;0.00;;;;;;;;;;7393844;19;20138;-51
2024/04/06 10:29:30;;;;;;;0.10;0.10;;;;;;;;;;7393580;19;20126;-51
2024/04/06 10:31:56;;;;;;;0.00;0.00;;;;;;;;;;7394122;19;20137;-51
2024/04/06 10:34:22;;;;;;;0.10;0.10;;;;;;;;;;7393791;19;20137;-50
2024/04/06 10:36:48;;;;;;;0.10;0.10;;;;;;;;;;7394383;19;20137;-51
2024/04/06 10:39:18;;;;;;;0.00;0.00;;;;;;;;;;7393886;19;20154;-50
2024/04/06 10:41:44;;;;;;;0.00;0.00;;;;;;;;;;7394163;19;20197;-51
2024/04/06 10:44:10;;;;;;;0.00;0.00;;;;;;;;;;7393077;19;20162;-51
2024/04/06 10:46:37;;;;;;;0.00;0.00;;;;;;;;;;7392592;19;20193;-51
2024/04/06 10:49:09;;;;;;;0.00;0.00;;;;;;;;;;7393244;19;20158;-51
2024/04/06 10:51:35;;;;;;;0.10;0.10;;;;;;;;;;7394013;19;20153;-51
2024/04/06 10:54:01;;;;;;;0.00;0.00;;;;;;;;;;7393084;19;20159;-53
2024/04/06 10:56:27;;;;;;;0.00;0.00;;;;;;;;;;7398196;19;20130;-51
2024/04/06 10:58:53;;;;;;;0.10;0.10;;;;;;;;;;7399347;19;20152;-51
2024/04/06 11:01:20;;;;;;;0.00;0.00;;;;;;;;;;7400606;19;20138;-52
2024/04/06 11:03:50;;;;;;;0.00;0.00;;;;;;;;;;7400320;19;20218;-52
2024/04/06 11:06:16;;;;;;;0.00;0.00;;;;;;;;;;7400622;19;20144;-54
2024/04/06 11:08:43;;;;;;;0.00;0.00;;;;;;;;;;7398363;19;20179;-53
2024/04/06 11:11:09;;;;;;;0.00;0.00;;;;;;;;;;7398828;19;20142;-54
2024/04/06 11:13:39;;;;;;;0.00;0.00;;;;;;;;;;7399109;19;20138;-54
2024/04/06 11:16:05;;;;;;;0.00;0.00;;;;;;;;;;7401037;19;20173;-53
2024/04/06 11:18:47;;;;;;;0.00;0.00;;;;;;;;;;7399925;19;20193;-54
2024/04/06 11:21:14;;;;;;;0.00;0.00;;;;;;;;;;7400825;19;20153;-53
2024/04/06 11:23:43;;;;;;;0.00;0.00;;;;;;;;;;7399882;19;20134;-53
2024/04/06 11:26:09;;;;;;;0.00;0.00;;;;;;;;;;7398476;19;20169;-53
2024/04/06 11:28:36;;;;;;;0.00;0.00;;;;;;;;;;7397761;19;20134;-53
2024/04/06 11:31:02;;;;;;;0.00;0.00;;;;;;;;;;7400738;19;20142;-51
2024/04/06 11:33:29;;;;;;;0.00;0.00;;;;;;;;;;7400057;19;20142;-52
2024/04/06 11:35:55;;;;;;;0.00;0.00;;;;;;;;;;7400123;19;20134;-52
2024/04/06 11:38:21;;;;;;;0.00;0.00;;;;;;;;;;7400018;19;20137;-52
2024/04/06 11:40:47;;;;;;;0.10;0.10;;;;;;;;;;7400278;19;20514;-51
2024/04/06 11:43:17;;;;;;;0.00;0.00;;;;;;;;;;7398720;19;20137;-51
2024/04/06 11:45:43;;;;;;;0.00;0.00;;;;;;;;;;7399505;19;20158;-54
2024/04/06 11:48:12;;;;;;;0.00;0.00;;;;;;;;;;7397758;19;20240;-53
2024/04/06 11:50:38;;;;;;;0.00;0.00;;;;;;;;;;7396228;19;20177;-51
2024/04/06 11:53:04;;;;;;;0.00;0.00;;;;;;;;;;7399678;19;20147;-52
2024/04/06 11:55:30;;;;;;;0.07;0.07;;;;;;;;;;7397059;19;20142;-53
2024/04/06 11:57:56;;;;;;;0.00;0.00;;;;;;;;;;7399164;19;20134;-50
2024/04/06 12:00:23;;;;;;;0.00;0.00;;;;;;;;;;7399270;19;20134;-50
2024/04/06 12:02:49;;;;;;;0.00;0.00;;;;;;;;;;7398979;19;20205;-51
2024/04/06 12:05:15;;;;;;;0.00;0.00;;;;;;;;;;7398243;19;20134;-52
2024/04/06 12:07:42;;;;;;;0.00;0.00;;;;;;;;;;7397589;19;20149;-52
2024/04/06 12:10:09;;;;;;;0.00;0.00;;;;;;;;;;7398580;19;20134;-51
2024/04/06 12:12:35;;;;;;;0.00;0.00;;;;;;;;;;7398555;19;20154;-51
2024/04/06 12:15:02;;;;;;;0.00;0.00;;;;;;;;;;7396949;19;20142;-51
2024/04/06 12:17:28;;;;;;;0.00;0.00;;;;;;;;;;7397095;19;20573;-53
2024/04/06 12:19:57;;;;;;;0.00;0.00;;;;;;;;;;7397548;19;20130;-50
2024/04/06 12:22:24;;;;;;;0.00;0.00;;;;;;;;;;7397937;19;20206;-51
2024/04/06 12:24:50;;;;;;;0.00;0.00;;;;;;;;;;7398100;19;20206;-53
2024/04/06 12:27:19;;;;;;;0.00;0.00;;;;;;;;;;7396995;19;20137;-50
2024/04/06 12:29:45;;;;;;;0.00;0.00;;;;;;;;;;7398001;19;20145;-52
2024/04/06 12:32:12;;;;;;;0.00;0.00;;;;;;;;;;7397870;19;20146;-52
2024/04/06 12:34:38;;;;;;;0.00;0.00;;;;;;;;;;7397785;19;20141;-52
2024/04/06 12:37:06;;;;;;;0.00;0.00;;;;;;;;;;7396771;19;20197;-52
2024/04/06 12:39:32;;;;;;;0.00;0.00;;;;;;;;;;7398791;19;20158;-51
2024/04/06 12:41:58;;;;;;;0.10;0.10;;;;;;;;;;7398085;19;20158;-51
2024/04/06 12:44:24;;;;;;;0.00;0.00;;;;;;;;;;7398806;19;20193;-51
2024/04/06 12:46:50;;;;;;;0.07;0.07;;;;;;;;;;7396973;19;20142;-52
2024/04/06 12:49:16;;;;;;;0.00;0.00;;;;;;;;;;7396826;19;20177;-52
2024/04/06 12:51:42;;;;;;;0.00;0.00;;;;;;;;;;7397493;19;20277;-52
2024/04/06 12:54:08;;;;;;;0.10;0.10;;;;;;;;;;7397303;19;20134;-50
2024/04/06 12:57:36;;;;;;;0.07;0.07;;;;;;;;;;7394894;19;20512;-52
2024/04/06 12:59:20;;;;;;;0.00;0.00;;;;;;;;;;7396009;19;20468;-52
2024/04/06 13:01:46;;;;;;;0.07;0.07;;;;;;;;;;7397007;19;20130;-50
2024/04/06 13:04:13;;;;;;;0.00;0.00;;;;;;;;;;7396738;19;20134;-51
2024/04/06 13:06:39;;;;;;;0.10;0.10;;;;;;;;;;7396811;19;20198;-51
2024/04/06 13:09:05;;;;;;;0.00;0.00;;;;;;;;;;7394651;19;20146;-50
2024/04/06 13:11:31;;;;;;;0.10;0.10;;;;;;;;;;7397221;19;20142;-51
2024/04/06 13:13:58;;;;;;;0.00;0.00;;;;;;;;;;7395647;19;20146;-51
2024/04/06 13:16:24;;;;;;;0.00;0.00;;;;;;;;;;7395940;19;20166;-52
2024/04/06 13:18:50;;;;;;;0.00;0.00;;;;;;;;;;7394338;19;20469;-51
2024/04/06 13:21:16;;;;;;;0.00;0.00;;;;;;;;;;7395876;19;20155;-50
2024/04/06 13:23:42;;;;;;;0.00;0.00;;;;;;;;;;7394536;19;20620;-50
2024/04/06 13:26:11;;;;;;;0.00;0.00;;;;;;;;;;7395722;19;20130;-50
2024/04/06 13:28:37;;;;;;;0.00;0.00;;;;;;;;;;7394891;19;20617;-51
2024/04/06 13:31:07;;;;;;;0.00;0.00;;;;;;;;;;7394262;19;20203;-51
2024/04/06 13:33:34;;;;;;;0.10;0.10;;;;;;;;;;7394088;19;20495;-52
2024/04/06 13:36:02;;;;;;;0.10;0.10;;;;;;;;;;7393404;19;20161;-51
2024/04/06 13:38:28;;;;;;;0.10;0.10;;;;;;;;;;7396375;19;20528;-49
2024/04/06 13:40:54;;;;;;;0.10;0.10;;;;;;;;;;7395749;19;20221;-51
2024/04/06 13:43:20;;;;;;;0.00;0.00;;;;;;;;;;7395129;19;20151;-50
2024/04/06 13:45:47;;;;;;;0.10;0.10;;;;;;;;;;7395211;19;20174;-51
2024/04/06 13:48:16;;;;;;;0.10;0.10;;;;;;;;;;7394261;19;20134;-50
2024/04/06 13:50:42;;;;;;;0.00;0.00;;;;;;;;;;7394169;19;20488;-51
2024/04/06 13:53:08;;;;;;;0.00;0.00;;;;;;;;;;7395444;19;20149;-49
2024/04/06 13:55:34;;;;;;;0.00;0.00;;;;;;;;;;7395559;19;20206;-53
2024/04/06 13:58:00;;;;;;;0.00;0.00;;;;;;;;;;7394539;19;20142;-51
2024/04/06 14:00:27;;;;;;;0.00;0.00;;;;;;;;;;7393306;19;20138;-51
2024/04/06 14:02:53;;;;;;;0.00;0.00;;;;;;;;;;7395092;19;20144;-49
2024/04/06 14:05:19;;;;;;;0.00;0.00;;;;;;;;;;7394691;19;20478;-51
2024/04/06 14:07:48;;;;;;;0.00;0.00;;;;;;;;;;7394289;19;20138;-49
2024/04/06 14:10:14;;;;;;;0.00;0.00;;;;;;;;;;7392611;19;20142;-50
2024/04/06 14:12:40;;;;;;;0.00;0.00;;;;;;;;;;7394037;19;20150;-52
2024/04/06 14:15:09;;;;;;;0.00;0.00;;;;;;;;;;7394407;19;20130;-52
2024/04/06 14:17:38;;;;;;;0.10;0.10;;;;;;;;;;7393142;19;20676;-51
2024/04/06 14:20:08;;;;;;;0.00;0.00;;;;;;;;;;7394598;19;20673;-50
2024/04/06 14:22:34;;;;;;;0.00;0.00;;;;;;;;;;7394942;19;20134;-51
2024/04/06 14:25:00;;;;;;;0.00;0.00;;;;;;;;;;7394362;19;20130;-51
2024/04/06 14:27:26;;;;;;;0.03;0.03;;;;;;;;;;7392366;19;20161;-51
2024/04/06 14:29:59;;;;;;;0.00;0.00;;;;;;;;;;7392595;19;20161;-51
2024/04/06 14:32:25;;;;;;;0.00;0.00;;;;;;;;;;7393409;19;20214;-52
2024/04/06 14:34:51;;;;;;;0.00;0.00;;;;;;;;;;7394370;19;20142;-52
2024/04/06 14:37:17;;;;;;;0.00;0.00;;;;;;;;;;7394782;19;20141;-51
2024/04/06 14:39:44;;;;;;;0.10;0.10;;;;;;;;;;7393990;19;20142;-49